Provisional Data: Swatara Creek near Annville, PA


Please select a monitoring station.
Please select start date.
Please select start date.

Toggle Unit: C/F Toggle Unit: C/F
Sample Time Temperature (C) Temperature (F) Specific Conductivity (mS/cm) pH   Turbidity (NTU+) DO (mg/L)
8/25/2021 11:45:00 AM 24.44 75.992 211.5 10.2 90.5 -100002
8/25/2021 12:00:00 PM 24.6 76.28 211.6 9.99 91.2 -100002
8/25/2021 12:15:00 PM 24.78 76.604 211.6 9.51 92.4 -100002
8/25/2021 12:30:00 PM 24.95 76.91 211.8 9.42 93.7 -100002
8/25/2021 12:45:00 PM 25.12 77.216 212 9.06 94.6 -100002
8/25/2021 1:00:00 PM 25.32 77.576 212.1 8.5 95.9 -100002
8/25/2021 1:15:00 PM 25.46 77.828 212.3 8.96 97 -100002
8/25/2021 1:30:00 PM 25.7 78.26 212.5 8.61 98.6 -100002
8/25/2021 1:45:00 PM 25.9 78.62 212.5 7.92 99.4 -100002
8/25/2021 2:00:00 PM 26.11 78.998 212.8 7.79 100.4 -100002
8/25/2021 2:15:00 PM 26.24 79.232 213.1 7.59 101.2 -100002
8/25/2021 2:30:00 PM 26.39 79.502 213.3 7.4 102.5 -100002
8/25/2021 2:45:00 PM 26.54 79.772 213.4 7.14 103.1 -100002
8/25/2021 3:00:00 PM 26.67 80.006 213.6 6.92 104 -100002
8/25/2021 3:15:00 PM 26.79 80.222 213.8 7.08 104.4 -100002
8/25/2021 3:30:00 PM 26.88 80.384 213.9 6.81 105 -100002
8/25/2021 3:45:00 PM 26.94 80.492 214.1 6.67 105.3 -100002
8/25/2021 4:00:00 PM 27 80.6 214.2 6.67 105.2 -100002
8/25/2021 4:15:00 PM 27.02 80.636 214.3 6.64 105.6 -100002
8/25/2021 4:30:00 PM 26.96 80.528 214.5 6.4 104.9 -100002
8/25/2021 4:45:00 PM 26.94 80.492 214.5 6.32 105 -100002
8/25/2021 5:00:00 PM 26.91 80.438 214.7 7.81 104.6 -100002
8/25/2021 5:15:00 PM 26.91 80.438 214.6 6.96 104 -100002
8/25/2021 5:30:00 PM 26.88 80.384 214.9 7.74 104 -100002
8/25/2021 5:45:00 PM 26.83 80.294 215 7.37 103 -100002
8/25/2021 6:00:00 PM 26.79 80.222 215.1 6.88 102.8 -100002
8/25/2021 6:15:00 PM 26.74 80.132 215.2 6.21 102.1 -100002
8/25/2021 6:30:00 PM 26.7 80.06 215.4 6.57 101.7 -100002
8/25/2021 6:45:00 PM 26.65 79.97 215.4 7.51 100.8 -100002
8/25/2021 7:00:00 PM 26.59 79.862 215.6 6.83 100.2 -100002
8/25/2021 7:15:00 PM 26.54 79.772 215.7 7.6 99.5 -100002
8/25/2021 7:30:00 PM 26.48 79.664 215.8 6.7 98.7 -100002
8/25/2021 7:45:00 PM 26.43 79.574 215.9 7.06 98.1 -100002
8/25/2021 8:00:00 PM 26.37 79.466 216 7.09 97.3 -100002
8/25/2021 8:15:00 PM 26.32 79.376 216.1 7.58 96.6 -100002
8/25/2021 8:30:00 PM 26.28 79.304 216.3 8.55 96.1 -100002
8/25/2021 8:45:00 PM 26.24 79.232 216.4 8.03 95.5 -100002
8/25/2021 9:00:00 PM 26.21 79.17799 216.6 9.53 95 -100002
8/25/2021 9:15:00 PM 26.17 79.106 216.7 8.58 94.4 -100002
8/25/2021 9:30:00 PM 26.14 79.052 216.8 8.84 94 -100002
8/25/2021 9:45:00 PM 26.11 78.998 217 9.03 93.3 -100002
8/25/2021 10:00:00 PM 26.08 78.944 217.1 8.79 93 -100002
8/25/2021 10:15:00 PM 26.04 78.872 217 8.9 92.4 -100002
8/25/2021 10:30:00 PM 26.03 78.854 217.4 8.31 92.2 -100002
8/25/2021 10:45:00 PM 26 78.8 217.5 8.99 91.8 -100002
8/25/2021 11:00:00 PM 25.98 78.764 217.7 8.67 91.5 -100002
8/25/2021 11:15:00 PM 25.96 78.728 217.6 8.87 91 -100002
8/25/2021 11:30:00 PM 25.93 78.674 218 8.19 90.8 -100002
8/25/2021 11:45:00 PM 25.91 78.638 218.2 9.76 90.7 -100002
8/26/2021 12:00:00 AM 25.89 78.602 218.4 9.59 90.4 -100002
8/26/2021 12:15:00 AM 25.86 78.548 218.7 9.14 90 -100002
8/26/2021 12:30:00 AM 25.83 78.494 218.6 9.18 89.8 -100002
8/26/2021 12:45:00 AM 25.79 78.422 218.9 9.67 89.4 -100002
8/26/2021 1:00:00 AM 25.77 78.386 219.1 9.81 89.3 -100002
8/26/2021 1:15:00 AM 25.74 78.332 219.1 9.66 89 -100002
8/26/2021 1:30:00 AM 25.68 78.224 219.1 9.75 88.7 -100002
8/26/2021 1:45:00 AM 25.65 78.17 219.3 10.14 88.4 -100002
8/26/2021 2:00:00 AM 25.61 78.098 219.7 11.04 88.4 -100002
8/26/2021 2:15:00 AM 25.57 78.026 219.9 9.94 88.2 -100002
8/26/2021 2:30:00 AM 25.53 77.954 220.2 10.48 88 -100002
8/26/2021 2:45:00 AM 25.48 77.864 220.4 10.65 87.6 -100002
8/26/2021 3:00:00 AM 25.44 77.792 220.4 10.46 87.4 -100002
8/26/2021 3:15:00 AM 25.4 77.72 220.7 9.87 87.3 -100002
8/26/2021 3:30:00 AM 25.36 77.648 221.1 11.03 87.2 -100002
8/26/2021 3:45:00 AM 25.31 77.558 221.1 10.36 86.9 -100002
8/26/2021 4:00:00 AM 25.26 77.468 221.3 10.56 86.9 -100002
8/26/2021 4:15:00 AM 25.24 77.432 221.5 9.67 86.8 -100002
8/26/2021 4:30:00 AM 25.18 77.324 221.7 12.02 86.4 -100002
8/26/2021 4:45:00 AM 25.16 77.288 221.9 10.64 86.4 -100002
8/26/2021 5:00:00 AM 25.11 77.198 222.1 10.36 86.1 -100002
8/26/2021 5:15:00 AM 25.08 77.144 222.2 11.42 86 -100002
8/26/2021 5:30:00 AM 25.04 77.07201 222.4 11.98 85.9 -100002
8/26/2021 5:45:00 AM 24.99 76.982 222.4 10.27 85.7 -100002
8/26/2021 6:00:00 AM 24.96 76.92799 222.7 11.11 85.6 -100002
8/26/2021 6:15:00 AM 24.91 76.838 222.8 13.8 85.4 -100002
8/26/2021 6:30:00 AM 24.9 76.82 223 11.13 85.4 -100002
8/26/2021 6:45:00 AM 24.85 76.73 223.1 10.94 85.3 -100002
8/26/2021 7:00:00 AM 24.81 76.658 223.2 11.12 85.2 -100002
8/26/2021 7:15:00 AM 24.79 76.622 223.3 12.89 85.1 -100002
8/26/2021 7:30:00 AM 24.77 76.586 223.4 10.42 85 -100002
8/26/2021 7:45:00 AM 24.74 76.532 223.5 9.82 84.9 -100002
8/26/2021 8:00:00 AM 24.72 76.496 223.6 10.39 85 -100002
8/26/2021 8:15:00 AM 24.71 76.478 223.7 9.91 85 -100002
8/26/2021 8:30:00 AM 24.69 76.442 223.8 10.55 85 -100002
8/26/2021 8:45:00 AM 24.68 76.424 224.1 9.19 85 -100002
8/26/2021 9:00:00 AM 24.68 76.424 224.2 9.39 85.1 -100002
8/26/2021 9:15:00 AM 24.67 76.406 224.3 8.86 85.3 -100002
8/26/2021 9:30:00 AM 24.68 76.424 224.5 8.22 85.8 -100002
8/26/2021 9:45:00 AM 24.71 76.478 224.7 8.71 86 -100002
8/26/2021 10:00:00 AM 24.73 76.514 224.8 8.24 86.1 -100002
8/26/2021 10:15:00 AM 24.79 76.622 225 8.24 87 -100002
8/26/2021 10:30:00 AM 24.84 76.712 225.2 6.87 87.6 -100002
8/26/2021 10:45:00 AM 24.89 76.802 225.3 7.78 88.3 -100002
8/26/2021 11:00:00 AM 25 77 225.5 6.31 89.3 -100002
8/26/2021 11:15:00 AM 25.11 77.198 225.6 6.95 90.3 -100002
8/26/2021 11:30:00 AM 25.27 77.486 225.8 5.98 91.7 -100002
8/26/2021 11:45:00 AM 25.41 77.738 225.9 5.85 92.6 -100002
8/26/2021 12:00:00 PM 25.6 78.08 226.1 5.59 94.1 -100002
8/26/2021 12:15:00 PM 25.78 78.404 226.3 5.3 95.3 -100002
8/26/2021 12:30:00 PM 25.99 78.782 226.2 4.82 96.9 -100002
8/26/2021 12:45:00 PM 26.2 79.16 226.6 4.8 98.3 -100002
8/26/2021 1:00:00 PM 26.42 79.556 226.7 4.67 99.8 -100002
8/26/2021 1:15:00 PM 26.61 79.898 227 4.7 101.5 -100002
8/26/2021 1:30:00 PM 26.84 80.312 227 4.62 102.7 -100002
8/26/2021 1:45:00 PM 27.04 80.672 227.2 4.31 104.1 -100002
8/26/2021 2:00:00 PM 27.23 81.014 227.4 4.55 105.5 -100002
8/26/2021 2:15:00 PM 27.39 81.302 227.4 5.17 106.8 -100002
8/26/2021 2:30:00 PM 27.57 81.626 227.5 4.61 107.8 -100002
8/26/2021 2:45:00 PM 27.72 81.896 227.5 3.9 108.7 -100002
8/26/2021 3:00:00 PM 27.87 82.166 227.7 4.23 109.8 -100002
8/26/2021 3:15:00 PM 28.01 82.418 227.8 3.64 110.4 -100002
8/26/2021 3:30:00 PM 28.11 82.598 227.9 4.02 110.9 -100002
8/26/2021 3:45:00 PM 28.17 82.706 228 3.62 111.2 -100002
8/26/2021 4:00:00 PM 28.21 82.778 228.2 3.73 111.5 -100002
8/26/2021 4:15:00 PM 28.24 82.832 228.4 3.9 111.5 -100002
8/26/2021 4:30:00 PM 28.23 82.814 228.6 3.93 111.1 -100002
8/26/2021 4:45:00 PM 28.2 82.76 228.7 4.09 110.9 -100002
8/26/2021 5:00:00 PM 28.17 82.706 228.9 3.74 110.4 -100002
8/26/2021 5:15:00 PM 28.14 82.652 229.1 3.64 110 -100002
8/26/2021 5:30:00 PM 28.11 82.598 229.1 4.16 109 -100002
8/26/2021 5:45:00 PM 28.05 82.49 229.3 4.03 108.4 -100002
8/26/2021 6:00:00 PM 27.99 82.382 229.4 4.08 107.3 -100002
8/26/2021 6:15:00 PM 27.92 82.256 229.5 4.42 106.6 -100002
8/26/2021 6:30:00 PM 27.86 82.148 229.5 3.82 105.5 -100002
8/26/2021 6:45:00 PM 27.8 82.04 229.6 3.63 104.6 -100002
8/26/2021 7:00:00 PM 27.72 81.896 229.8 5.99 103.6 -100002
8/26/2021 7:15:00 PM 27.66 81.788 229.9 4.91 102.5 -100002
8/26/2021 7:30:00 PM 27.59 81.662 230.1 4.9 101.8 -100002
8/26/2021 7:45:00 PM 27.51 81.518 230.1 4.86 100.6 -100002
8/26/2021 8:00:00 PM 27.45 81.41 230 4.92 99.4 -100002
8/26/2021 8:15:00 PM 27.37 81.266 230.1 6.36 98.6 -100002
8/26/2021 8:30:00 PM 27.31 81.158 230.4 5.09 97.9 -100002
8/26/2021 8:45:00 PM 27.24 81.032 230.5 5.8 97 -100002
8/26/2021 9:00:00 PM 27.19 80.942 230.7 6.22 96.3 -100002
8/26/2021 9:15:00 PM 27.12 80.816 230.6 5.6 95.4 -100002
8/26/2021 9:30:00 PM 27.08 80.744 230.7 6.06 94.8 -100002
8/26/2021 9:45:00 PM 27.03 80.654 230.8 5.72 94.2 -100002
8/26/2021 10:00:00 PM 26.99 80.582 231 5.8 93.7 -100002
8/26/2021 10:15:00 PM 26.96 80.528 231.1 6.22 93.2 -100002
8/26/2021 10:30:00 PM 26.91 80.438 231 7.41 92.6 -100002
8/26/2021 10:45:00 PM 26.88 80.384 231 6.39 92.2 -100002
8/26/2021 11:00:00 PM 26.83 80.294 231 7.59 91.6 -100002
8/26/2021 11:15:00 PM 26.8 80.24 231 6.67 91.1 -100002
8/26/2021 11:30:00 PM 26.77 80.186 231 6.77 90.8 -100002
8/26/2021 11:45:00 PM 26.74 80.132 231.1 6.15 90.5 -100002
8/27/2021 12:00:00 AM 26.71 80.078 231 6.81 90.1 -100002
8/27/2021 12:15:00 AM 26.69 80.042 231.1 6.8 89.9 -100002
8/27/2021 12:30:00 AM 26.67 80.006 231.3 7.4 89.6 -100002
8/27/2021 12:45:00 AM 26.63 79.934 231.3 9.38 89.3 -100002
8/27/2021 1:00:00 AM 26.62 79.916 231.5 6.89 89.2 -100002
8/27/2021 1:15:00 AM 26.58 79.844 231.5 7.64 88.9 -100002
8/27/2021 1:30:00 AM 26.54 79.772 231.5 8.25 88.7 -100002
8/27/2021 1:45:00 AM 26.52 79.736 231.7 9.03 88.5 -100002
8/27/2021 2:00:00 AM 26.49 79.682 231.8 7.36 88.4 -100002
8/27/2021 2:15:00 AM 26.44 79.592 231.8 9.24 88 -100002
8/27/2021 2:30:00 AM 26.41 79.538 231.9 8.76 87.8 -100002
8/27/2021 2:45:00 AM 26.37 79.466 231.9 8.44 87.6 -100002
8/27/2021 3:00:00 AM 26.32 79.376 231.9 8.09 87.3 -100002
8/27/2021 3:15:00 AM 26.29 79.32201 232.1 8.83 87.3 -100002
8/27/2021 3:30:00 AM 26.25 79.25 232.1 10 87 -100002
8/27/2021 3:45:00 AM 26.2 79.16 231.9 7.27 86.5 -100002
8/27/2021 4:00:00 AM 26.16 79.088 232.1 8.5 86.4 -100002
8/27/2021 4:15:00 AM 26.11 78.998 232.2 8.03 86.1 -100002
8/27/2021 4:30:00 AM 26.07 78.926 232 10.5 85.8 -100002
8/27/2021 4:45:00 AM 26.02 78.836 232.2 9.36 85.7 -100002
8/27/2021 5:00:00 AM 25.97 78.746 232.1 13.21 85.4 -100002
8/27/2021 5:15:00 AM 25.93 78.674 232.1 9.95 85.2 -100002
8/27/2021 5:30:00 AM 25.88 78.584 232.1 9.13 85.3 -100002
8/27/2021 5:45:00 AM 25.85 78.53 232.7 8.21 85 -100002
8/27/2021 6:00:00 AM 25.79 78.422 232.6 7.87 84.7 -100002
8/27/2021 6:15:00 AM 25.75 78.35 232.7 12.56 84 -100002
8/27/2021 6:30:00 AM 25.71 78.278 233 10.52 84.1 -100002
8/27/2021 6:45:00 AM 25.67 78.206 233.3 869.8 84 -100002
8/27/2021 7:00:00 AM 25.63 78.134 233.2 13.9 83.6 -100002
8/27/2021 7:15:00 AM 25.6 78.08 233.4 34.4 83.8 -100002
8/27/2021 7:30:00 AM 25.58 78.044 233.5 12.2 83.7 -100002
8/27/2021 7:45:00 AM 25.56 78.008 233.6 12.23 82.8 -100002
8/27/2021 8:00:00 AM 25.55 77.99 233.7 8.22 83.8 -100002
8/27/2021 8:15:00 AM 25.55 77.99 233.7 1658 83.6 -100002
8/27/2021 8:30:00 AM 25.53 77.954 233.7 9.48 84.1 -100002
8/27/2021 8:45:00 AM 25.54 77.972 233.7 262.9 84.3 -100002
8/27/2021 9:00:00 AM 25.56 78.008 233.8 6.25 84.7 -100002
8/27/2021 9:15:00 AM 25.58 78.044 233.7 9.26 85.3 -100002
8/27/2021 9:30:00 AM 25.61 78.098 233.7 7.27 85.9 -100002
8/27/2021 9:45:00 AM 25.63 78.134 234 7.37 86.4 -100002
8/27/2021 10:00:00 AM 25.66 78.188 233.8 11.52 87 -100002
8/27/2021 10:15:00 AM 25.69 78.242 234 11.97 88 -100002
8/27/2021 10:30:00 AM 25.7 78.26 233.9 6.2 88 -100002
8/27/2021 10:45:00 AM 25.73 78.314 233.7 11.48 88.5 -100002
8/27/2021 11:00:00 AM 25.76 78.368 234 9.31 90.1 -100002
8/27/2021 11:15:00 AM 25.8 78.44 234.2 7.38 90.8 -100002
8/27/2021 11:30:00 AM 25.84 78.512 234.2 25.2 91.7 -100002
8/27/2021 11:45:00 AM 25.93 78.674 234.3 1724 93.2 -100002
8/27/2021 12:00:00 PM 26 78.8 234.3 7.45 94.6 -100002
8/27/2021 12:15:00 PM 26.06 78.908 234.3 5.98 95.2 -100002
8/27/2021 12:30:00 PM 26.13 79.034 234.6 4.12 96.7 -100002
8/27/2021 12:45:00 PM 26.22 79.196 234.6 8.93 98 -100002
8/27/2021 1:00:00 PM 26.33 79.394 234.6 13.45 99.7 -100002
8/27/2021 1:15:00 PM 26.56 79.808 234.6 3.86 101.8 -100002
8/27/2021 1:30:00 PM 26.72 80.096 234.7 7.9 103.5 -100002
8/27/2021 1:45:00 PM 26.96 80.528 234.8 7.44 105.3 -100002
8/27/2021 2:00:00 PM 27.18 80.924 234.9 3.8 107.2 -100002
8/27/2021 2:15:00 PM 27.38 81.284 234.9 3.98 108.7 -100002
8/27/2021 2:30:00 PM 27.57 81.626 234.8 7.26 110.2 -100002
8/27/2021 2:45:00 PM 27.79 82.022 235 16.21 111.5 -100002
8/27/2021 3:00:00 PM 27.94 82.292 235 3.63 113 -100002
8/27/2021 3:15:00 PM 28.04 82.472 235.1 58.18 114.1 -100002
8/27/2021 3:30:00 PM 28.05 82.49 235.1 3.87 114.2 -100002
8/27/2021 3:45:00 PM 28.08 82.544 235.1 4.61 114.6 -100002
8/27/2021 4:00:00 PM 28.08 82.544 235.1 2.88 112.1 -100002
8/27/2021 4:15:00 PM 28.13 82.634 235.5 4.1 115.9 -100002
8/27/2021 4:30:00 PM 28.04 82.472 235.7 13.4 114.3 -100002
8/27/2021 4:45:00 PM 27.98 82.364 235.8 3.27 112.9 -100002
8/27/2021 5:00:00 PM 27.97 82.346 235.9 173.9 112.7 -100002
8/27/2021 5:15:00 PM 27.96 82.328 236.4 5.58 112.3 -100002
8/27/2021 5:30:00 PM 27.93 82.274 236.6 2.75 111.1 -100002
8/27/2021 5:45:00 PM 27.49 81.482 220.9 73.03 108 -100002
8/27/2021 6:00:00 PM 27.08 80.744 203.4 133.1 106.3 -100002
8/27/2021 6:15:00 PM 27.08 80.744 211.2 77.72 105.5 -100002
8/27/2021 6:30:00 PM 26.28 79.304 195.8 122.1 101.8 -100002
8/27/2021 6:45:00 PM 25.33 77.594 153.5 260.2 94.8 -100002
8/27/2021 7:00:00 PM 25.52 77.936 158.9 229.9 93 -100002
8/27/2021 7:15:00 PM 25.21 77.378 145.9 219.4 89.5 -100002
8/27/2021 7:30:00 PM 24.91 76.838 135.1 203 85.4 -100002
8/27/2021 7:45:00 PM 24.83 76.694 139.2 173 84.2 -100002
8/27/2021 8:00:00 PM 25 77 149.7 131.2 84.6 -100002
8/27/2021 8:15:00 PM 25 77 153.4 124.3 84.7 -100002
8/27/2021 8:30:00 PM 25.28 77.504 168.3 125.1 86.1 -100002
8/27/2021 8:45:00 PM 25 77 158.9 168.5 84.7 -100002
8/27/2021 9:00:00 PM 25.21 77.378 169.8 149.3 85.4 -100002
8/27/2021 9:15:00 PM 25.36 77.648 178.4 119.6 85.9 -100002
8/27/2021 9:30:00 PM 25.62 78.116 191.9 84.56 86.8 -100002
8/27/2021 9:45:00 PM 25.64 78.152 194.8 64.5 86.9 -100002
8/27/2021 10:00:00 PM 25.85 78.53 204.2 46.05 87.8 -100002
8/27/2021 10:15:00 PM 25.87 78.566 207.4 41.07 88 -100002
8/27/2021 10:30:00 PM 25.85 78.53 208.3 40.66 87.7 -100002
8/27/2021 10:45:00 PM 25.85 78.53 209.7 37.56 87.4 -100002
8/27/2021 11:00:00 PM 25.82 78.476 210 36.45 87.1 -100002
8/27/2021 11:15:00 PM 25.85 78.53 211.8 33.34 87.2 -100002
8/27/2021 11:30:00 PM 25.84 78.512 212.7 32.6 86.9 -100002
8/27/2021 11:45:00 PM 25.84 78.512 213.5 29.18 87 -100002
8/28/2021 12:00:00 AM 25.84 78.512 212.5 27.26 86.8 -100002
8/28/2021 12:15:00 AM 25.85 78.53 215.1 27.24 86.8 -100002
8/28/2021 12:30:00 AM 25.81 78.458 214.7 25.69 86.4 -100002
8/28/2021 12:45:00 AM 25.81 78.458 215.5 24.67 86.1 -100002
8/28/2021 1:00:00 AM 25.79 78.422 215.7 22.84 85.9 -100002
8/28/2021 1:15:00 AM 25.76 78.368 216 22.74 85.5 -100002
8/28/2021 1:30:00 AM 25.72 78.296 217 22.58 85.3 -100002
8/28/2021 1:45:00 AM 25.71 78.278 219.1 24.28 85.2 -100002
8/28/2021 2:00:00 AM 25.64 78.152 220.4 30.55 84.5 -100002
8/28/2021 2:15:00 AM 25.57 78.026 223.4 47.39 84 -100002
8/28/2021 2:30:00 AM 25.54 77.972 227.2 55.28 83.4 -100002
8/28/2021 2:45:00 AM 25.46 77.828 226.8 61.59 83.1 -100002
8/28/2021 3:00:00 AM 25.39 77.702 224.3 76.55 83 -100002
8/28/2021 3:15:00 AM 25.33 77.594 223.2 91.51 83.2 -100002
8/28/2021 3:30:00 AM 25.35 77.63 223.8 89.32 84 -100002
8/28/2021 3:45:00 AM 25.38 77.684 224.4 98.28 84.6 -100002
8/28/2021 4:00:00 AM 25.39 77.702 224.6 103.2 84.7 -100002
8/28/2021 4:15:00 AM 25.41 77.738 224.6 108.3 84.9 -100002
8/28/2021 4:30:00 AM 25.41 77.738 222.2 120.2 84.7 -100002
8/28/2021 4:45:00 AM 25.34 77.612 215.8 126.8 83.9 -100002
8/28/2021 5:00:00 AM 25.22 77.396 207.1 142.8 82.4 -100002
8/28/2021 5:15:00 AM 25.04 77.07201 196.3 156.9 80.7 -100002
8/28/2021 5:30:00 AM 24.83 76.694 185.9 173.9 78.8 -100002
8/28/2021 5:45:00 AM 24.63 76.334 177.8 178.9 77.3 -100002
8/28/2021 6:00:00 AM 24.44 75.992 172.8 184.8 75.8 -100002
8/28/2021 6:15:00 AM 24.32 75.776 173.5 187.6 74.7 -100002
8/28/2021 6:30:00 AM 24.22 75.596 177.2 194.5 73.7 -100002
8/28/2021 6:45:00 AM 24.16 75.488 181.1 198.6 72.5 -100002
8/28/2021 7:00:00 AM 24.08 75.344 184.4 217.4 71.2 -100002
8/28/2021 7:15:00 AM 24.02 75.236 183.5 227.9 70 -100002
8/28/2021 7:30:00 AM 23.94 75.092 179.4 235.1 69 -100002
8/28/2021 7:45:00 AM 23.85 74.93 172.5 231 68.4 -100002
8/28/2021 8:00:00 AM 23.75 74.75 164.3 244.9 67.8 -100002
8/28/2021 8:15:00 AM 23.67 74.606 156.8 244.4 67.8 -100002
8/28/2021 8:30:00 AM 23.6 74.48 150.6 239.2 67.8 -100002
8/28/2021 8:45:00 AM 23.51 74.318 143.1 240.6 68.1 -100002
8/28/2021 9:00:00 AM 23.45 74.21 138.6 231.8 68.5 -100002
8/28/2021 9:15:00 AM 23.4 74.12 135.6 225.3 68.8 -100002
8/28/2021 9:30:00 AM 23.37 74.066 133.9 211.8 69.2 -100002
8/28/2021 9:45:00 AM 23.33 73.994 131.3 215.1 69.6 -100002
8/28/2021 10:00:00 AM 23.31 73.958 130.4 211.6 69.8 -100002
8/28/2021 10:15:00 AM 23.29 73.922 129.2 197 70.1 -100002
8/28/2021 10:30:00 AM 23.27 73.886 128.5 193.7 70.2 -100002
8/28/2021 10:45:00 AM 23.25 73.85 127.7 186.8 70.5 -100002
8/28/2021 11:00:00 AM 23.23 73.814 126.8 175 70.6 -100002
8/28/2021 11:15:00 AM 23.21 73.778 126.6 168.6 70.9 -100002
8/28/2021 11:30:00 AM 23.2 73.76 125.1 177.8 71.2 -100002
8/28/2021 11:45:00 AM 23.2 73.76 125.3 166.4 71.2 -100002
8/28/2021 12:00:00 PM 23.19 73.742 124.7 157.5 71.4 -100002
8/28/2021 12:15:00 PM 23.21 73.778 124.1 151.2 71.6 -100002
8/28/2021 12:30:00 PM 23.21 73.778 124 148.4 71.8 -100002
8/28/2021 12:45:00 PM 23.21 73.778 123.3 150.2 71.8 -100002
8/28/2021 1:00:00 PM 23.21 73.778 123.2 140.8 71.9 -100002
8/28/2021 1:15:00 PM 23.2 73.76 123.1 138.2 72.1 -100002
8/28/2021 1:30:00 PM 23.19 73.742 123.3 136.2 72.2 -100002
8/28/2021 1:45:00 PM 23.19 73.742 123.1 124.6 72.2 -100002
8/28/2021 2:00:00 PM 23.18 73.724 123.2 125.5 72.3 -100002
8/28/2021 2:15:00 PM 23.16 73.688 123.4 121.3 72.5 -100002
8/28/2021 2:30:00 PM 23.15 73.67 123.4 115 72.5 -100002
8/28/2021 2:45:00 PM 23.15 73.67 123.9 114.7 72.7 -100002
8/28/2021 3:00:00 PM 23.14 73.652 124.6 107.7 72.7 -100002
8/28/2021 3:15:00 PM 23.14 73.652 125.3 106.2 73 -100002
8/28/2021 3:30:00 PM 23.14 73.652 125.5 103.5 73.2 -100002
8/28/2021 3:45:00 PM 23.13 73.634 126.1 99.61 73.4 -100002
8/28/2021 4:00:00 PM 23.12 73.616 127.1 97.63 73.6 -100002
8/28/2021 4:15:00 PM 23.11 73.598 128.2 93.92 73.7 -100002
8/28/2021 4:30:00 PM 23.09 73.562 128.8 92.46 74 -100002
8/28/2021 4:45:00 PM 23.08 73.544 130.8 90.51 74.2 -100002
8/28/2021 5:00:00 PM 23.07 73.526 131.3 88.24 74.6 -100002
8/28/2021 5:15:00 PM 23.06 73.508 132.4 85.99 74.7 -100002
8/28/2021 5:30:00 PM 23.05 73.49 133.8 80.66 75.1 -100002
8/28/2021 5:45:00 PM 23.04 73.472 135.5 79.06 75.3 -100002
8/28/2021 6:00:00 PM 23.02 73.436 136.4 75.16 75.7 -100002
8/28/2021 6:15:00 PM 23.01 73.418 138 73.98 75.9 -100002
8/28/2021 6:30:00 PM 22.99 73.382 138.3 69.8 76.1 -100002
8/28/2021 6:45:00 PM 22.98 73.364 140 67.75 76.3 -100002
8/28/2021 7:00:00 PM 22.96 73.328 141.2 68.59 76.6 -100002
8/28/2021 7:15:00 PM 22.95 73.31 142.6 63.63 76.7 -100002
8/28/2021 7:30:00 PM 22.93 73.274 140.5 61.08 76.9 -100002
8/28/2021 7:45:00 PM 22.91 73.238 144.3 62.8 77.3 -100002
8/28/2021 8:00:00 PM 22.9 73.22 146.3 59.92 77.4 -100002
8/28/2021 8:15:00 PM 22.89 73.202 147.5 58.81 77.5 -100002
8/28/2021 8:30:00 PM 22.87 73.166 147.8 56.23 77.8 -100002
8/28/2021 8:45:00 PM 22.86 73.148 148.6 57.66 78.2 -100002
8/28/2021 9:00:00 PM 22.84 73.112 150 53.52 78.4 -100002
8/28/2021 9:15:00 PM 22.83 73.094 150.3 55.14 78.5 -100002
8/28/2021 9:30:00 PM 22.81 73.058 151.7 50.41 78.8 -100002
8/28/2021 9:45:00 PM 22.79 73.022 151.8 51.83 79 -100002
8/28/2021 10:00:00 PM 22.77 72.986 152.6 49.16 79.3 -100002
8/28/2021 10:15:00 PM 22.75 72.95 152.8 47.69 79.5 -100002
8/28/2021 10:30:00 PM 22.74 72.932 153.6 47.02 79.6 -100002
8/28/2021 10:45:00 PM 22.72 72.896 154.2 46.99 79.9 -100002
8/28/2021 11:00:00 PM 22.69 72.842 154.4 46.62 80.3 -100002
8/28/2021 11:15:00 PM 22.67 72.806 155.8 44.45 80.2 -100002
8/28/2021 11:30:00 PM 22.65 72.77 155.1 45.59 80.7 -100002
8/28/2021 11:45:00 PM 22.62 72.716 155.7 43.19 80.8 -100002
8/29/2021 12:00:00 AM 22.6 72.68 155.7 43.22 81.2 -100002
8/29/2021 12:15:00 AM 22.58 72.644 156.3 43.22 81.4 -100002
8/29/2021 12:30:00 AM 22.55 72.59 156.1 42.98 81.8 -100002
8/29/2021 12:45:00 AM 22.53 72.554 156.8 43.65 82 -100002
8/29/2021 1:00:00 AM 22.5 72.5 157.6 42.56 82 -100002
8/29/2021 1:15:00 AM 22.48 72.464 158 44.11 82.3 -100002
8/29/2021 1:30:00 AM 22.45 72.41 157.8 43.23 82.4 -100002
8/29/2021 1:45:00 AM 22.43 72.374 157.5 42.13 83 -100002
8/29/2021 2:00:00 AM 22.41 72.338 158.4 41.46 83.1 -100002
8/29/2021 2:15:00 AM 22.38 72.284 158.9 40.73 83.2 -100002
8/29/2021 2:30:00 AM 22.35 72.23 159.3 41.65 83.2 -100002
8/29/2021 2:45:00 AM 22.33 72.194 159.8 39.09 83.4 -100002
8/29/2021 3:00:00 AM 22.31 72.158 160 39.84 83.8 -100002
8/29/2021 3:15:00 AM 22.28 72.104 161 39.35 83.7 -100002
8/29/2021 3:30:00 AM 22.26 72.068 161.2 38.47 84 -100002
8/29/2021 3:45:00 AM 22.23 72.014 161.5 38.29 84.1 -100002
8/29/2021 4:00:00 AM 22.21 71.978 162 37.46 84.1 -100002
8/29/2021 4:15:00 AM 22.19 71.942 162.1 39.72 84.5 -100002
8/29/2021 4:30:00 AM 22.16 71.888 162.5 39.42 84.5 -100002
8/29/2021 4:45:00 AM 22.14 71.852 162.7 37.16 84.6 -100002
8/29/2021 5:00:00 AM 22.12 71.816 163.1 38.65 84.6 -100002
8/29/2021 5:15:00 AM 22.1 71.78 163.3 38.01 84.9 -100002
8/29/2021 5:30:00 AM 22.07 71.726 163.9 37.05 84.7 -100002
8/29/2021 5:45:00 AM 22.04 71.672 164.4 37.45 84.9 -100002
8/29/2021 6:00:00 AM 22.02 71.636 164.6 36.34 85.1 -100002
8/29/2021 6:15:00 AM 21.98 71.564 165.3 35.84 85 -100002
8/29/2021 6:30:00 AM 21.97 71.546 165.2 37.8 85.3 -100002
8/29/2021 6:45:00 AM 21.94 71.492 165.7 36.76 85.3 -100002
8/29/2021 7:00:00 AM 21.9 71.42 166.6 36.32 85.3 -100002
8/29/2021 7:15:00 AM 21.9 71.42 166.3 35.31 85.5 -100002
8/29/2021 7:30:00 AM 21.88 71.384 166.5 36.37 85.7 -100002
8/29/2021 7:45:00 AM 21.84 71.312 167.4 34.88 85.6 -100002
8/29/2021 8:00:00 AM 21.83 71.294 167.4 36.71 86 -100002
8/29/2021 8:15:00 AM 21.81 71.258 167.8 34.36 85.9 -100002
8/29/2021 8:30:00 AM 21.79 71.222 168.3 35.17 86 -100002
8/29/2021 8:45:00 AM 21.78 71.204 168.5 34.34 86.3 -100002
8/29/2021 9:00:00 AM 21.76 71.168 169 34.44 86.2 -100002
8/29/2021 9:15:00 AM 21.75 71.15 169.4 34.93 86.5 -100002
8/29/2021 9:30:00 AM 21.74 71.132 169.8 35.21 86.7 -100002
8/29/2021 9:45:00 AM 21.74 71.132 170 34.98 86.7 -100002
8/29/2021 10:00:00 AM 21.71 71.078 170.6 34.55 86.9 -100002
8/29/2021 10:15:00 AM 21.7 71.06 170.9 32.82 87 -100002
8/29/2021 10:30:00 AM 21.71 71.078 170.9 33.45 87.2 -100002
8/29/2021 10:45:00 AM 21.7 71.06 171.4 31.55 87.4 -100002
8/29/2021 11:00:00 AM 21.71 71.078 171.7 32.09 87.6 -100002
8/29/2021 11:15:00 AM 21.74 71.132 171.8 32.81 88 -100002
8/29/2021 11:30:00 AM 21.76 71.168 172.2 31.12 88.2 -100002
8/29/2021 11:45:00 AM 21.78 71.204 172.6 30.98 88.5 -100002
8/29/2021 12:00:00 PM 21.8 71.24 173.1 31.54 88.8 -100002
8/29/2021 12:15:00 PM 21.84 71.312 173.6 32.53 89.1 -100002
8/29/2021 12:30:00 PM 21.86 71.348 174.1 34.01 89.4 -100002
8/29/2021 12:45:00 PM 21.88 71.384 174.7 32.68 89.6 -100002
8/29/2021 1:00:00 PM 21.92 71.456 175 32.67 90 -100002
8/29/2021 1:15:00 PM 21.96 71.528 175.5 33.54 90.2 -100002
8/29/2021 1:30:00 PM 22 71.6 176 32.97 90.5 -100002
8/29/2021 1:45:00 PM 22.04 71.672 176.4 33.12 90.8 -100002
8/29/2021 2:00:00 PM 22.08 71.744 176.8 31.86 91.3 -100002
8/29/2021 2:15:00 PM 22.11 71.798 177.2 31.86 91.6 -100002
8/29/2021 2:30:00 PM 22.15 71.87 177.5 31.47 91.6 -100002
8/29/2021 2:45:00 PM 22.18 71.924 177.7 33.49 92.1 -100002
8/29/2021 3:00:00 PM 22.21 71.978 178 31.89 92.2 -100002
8/29/2021 3:15:00 PM 22.25 72.05 178.3 31.84 92.6 -100002
8/29/2021 3:30:00 PM 22.28 72.104 178.6 30.05 92.8 -100002
8/29/2021 3:45:00 PM 22.3 72.14 178.9 31.59 92.9 -100002
8/29/2021 4:00:00 PM 22.35 72.23 179 31.1 93.4 -100002
8/29/2021 4:15:00 PM 22.37 72.266 179.2 30.69 93.6 -100002
8/29/2021 4:30:00 PM 22.37 72.266 179.5 30.22 93.7 -100002
8/29/2021 4:45:00 PM 22.4 72.32 179.5 31.66 93.9 -100002
8/29/2021 5:00:00 PM 22.4 72.32 179.8 30.72 93.9 -100002
8/29/2021 5:15:00 PM 22.41 72.338 180 32.35 94.1 -100002
8/29/2021 5:30:00 PM 22.42 72.356 180.2 29.82 94.1 -100002
8/29/2021 5:45:00 PM 22.41 72.338 180.5 31.01 94.4 -100002
8/29/2021 6:00:00 PM 22.41 72.338 180.8 31.46 94.1 -100002
8/29/2021 6:15:00 PM 22.4 72.32 181 29.88 94.4 -100002
8/29/2021 6:30:00 PM 22.4 72.32 181.3 32.21 94.2 -100002
8/29/2021 6:45:00 PM 22.39 72.302 181.6 33.02 94.1 -100002
8/29/2021 7:00:00 PM 22.39 72.302 181.8 32 94.1 -100002
8/29/2021 7:15:00 PM 22.39 72.302 182 29.37 94.1 -100002
8/29/2021 7:30:00 PM 22.39 72.302 182.1 31.53 94.2 -100002
8/29/2021 7:45:00 PM 22.38 72.284 182.4 32.37 94 -100002
8/29/2021 8:00:00 PM 22.38 72.284 182.6 32.43 93.9 -100002
8/29/2021 8:15:00 PM 22.37 72.266 182.9 31.05 93.6 -100002
8/29/2021 8:30:00 PM 22.36 72.248 183.1 32.4 93.9 -100002
8/29/2021 8:45:00 PM 22.36 72.248 183.3 33.67 93.8 -100002
8/29/2021 9:00:00 PM 22.35 72.23 183.3 34.2 93.6 -100002
8/29/2021 9:15:00 PM 22.35 72.23 183.6 33.91 93.8 -100002
8/29/2021 9:30:00 PM 22.33 72.194 184 32.31 93.5 -100002
8/29/2021 9:45:00 PM 22.33 72.194 184 34.13 93.6 -100002
8/29/2021 10:00:00 PM 22.31 72.158 184.4 32.23 93.3 -100002
8/29/2021 10:15:00 PM 22.3 72.14 184.5 43.16 93.5 -100002
8/29/2021 10:30:00 PM 22.28 72.104 185 33.59 93.1 -100002
8/29/2021 10:45:00 PM 22.28 72.104 185.1 31.77 93.1 -100002
8/29/2021 11:00:00 PM 22.27 72.086 185.4 32.49 93.2 -100002
8/29/2021 11:15:00 PM 22.26 72.068 185.6 33.22 93 -100002
8/29/2021 11:30:00 PM 22.26 72.068 185.7 33.45 93.2 -100002
8/29/2021 11:45:00 PM 22.25 72.05 186 33.51 93.1 -100002
8/30/2021 12:00:00 AM 22.25 72.05 186.2 34.71 93 -100002
8/30/2021 12:15:00 AM 22.25 72.05 186.4 35.57 92.9 -100002
8/30/2021 12:30:00 AM 22.24 72.032 186.7 34.89 92.5 -100002
8/30/2021 12:45:00 AM 22.24 72.032 186.7 33.77 92.6 -100002
8/30/2021 1:00:00 AM 22.23 72.014 186.9 33.93 92.5 -100002
8/30/2021 1:15:00 AM 22.22 71.996 187 36.95 92.5 -100002
8/30/2021 1:30:00 AM 22.2 71.96 187.4 35.08 92.1 -100002
8/30/2021 1:45:00 AM 22.19 71.942 187.5 36.1 91.9 -100002
8/30/2021 2:00:00 AM 22.19 71.942 187.4 36.92 92.2 -100002
8/30/2021 2:15:00 AM 22.18 71.924 187.5 35.37 92 -100002
8/30/2021 2:30:00 AM 22.16 71.888 187.7 36.91 91.9 -100002
8/30/2021 2:45:00 AM 22.14 71.852 187.9 35.16 91.7 -100002
8/30/2021 3:00:00 AM 22.13 71.834 188 38.87 91.6 -100002
8/30/2021 3:15:00 AM 22.12 71.816 188.3 34.7 91.4 -100002
8/30/2021 3:30:00 AM 22.12 71.816 188.4 34.33 91.5 -100002
8/30/2021 3:45:00 AM 22.1 71.78 188.7 34.92 91.4 -100002
8/30/2021 4:00:00 AM 22.08 71.744 189.1 36.87 91.1 -100002
8/30/2021 4:15:00 AM 22.07 71.726 189.4 36.32 91.3 -100002
8/30/2021 4:30:00 AM 22.06 71.708 189.7 37.24 90.9 -100002
8/30/2021 4:45:00 AM 22.05 71.69 189.9 37.38 91 -100002
8/30/2021 5:00:00 AM 22.03 71.654 190.1 37.29 90.9 -100002
8/30/2021 5:15:00 AM 22.02 71.636 190.4 35.16 90.7 -100002
8/30/2021 5:30:00 AM 22 71.6 190.6 37.6 90.7 -100002
8/30/2021 5:45:00 AM 21.99 71.582 190.7 37.72 90.6 -100002
8/30/2021 6:00:00 AM 21.98 71.564 190.9 36.46 90.5 -100002
8/30/2021 6:15:00 AM 21.96 71.528 191.1 35.97 90.5 -100002
8/30/2021 6:30:00 AM 21.95 71.51 191.2 36.69 90.5 -100002
8/30/2021 6:45:00 AM 21.94 71.492 191.4 36.89 90.1 -100002
8/30/2021 7:00:00 AM 21.93 71.474 191.5 34.94 90.2 -100002
8/30/2021 7:15:00 AM 21.92 71.456 191.7 36.64 90.1 -100002
8/30/2021 7:30:00 AM 21.9 71.42 192 34.5 90 -100002
8/30/2021 7:45:00 AM 21.91 71.438 192 38.63 90.1 -100002
8/30/2021 8:00:00 AM 21.9 71.42 192.3 35.97 90 -100002
8/30/2021 8:15:00 AM 21.89 71.402 192.5 34.7 89.9 -100002
8/30/2021 8:30:00 AM 21.92 71.456 192.6 35.82 90.1 -100002
8/30/2021 8:45:00 AM 21.94 71.492 192.8 35.54 90.4 -100002
8/30/2021 9:00:00 AM 21.94 71.492 193 34.47 90.5 -100002
8/30/2021 9:15:00 AM 21.95 71.51 193.2 33.61 90.6 -100002
8/30/2021 9:30:00 AM 21.96 71.528 193.4 33.97 90.8 -100002
8/30/2021 9:45:00 AM 22.01 71.618 193.4 34.13 90.9 -100002
8/30/2021 10:00:00 AM 22.03 71.654 193.5 35.1 91.3 -100002
8/30/2021 10:15:00 AM 22.05 71.69 193.7 32.44 91.5 -100002
8/30/2021 10:30:00 AM 22.1 71.78 193.7 35.06 91.9 -100002
8/30/2021 10:45:00 AM 22.16 71.888 193.8 34.89 92.3 -100002
8/30/2021 11:00:00 AM 22.24 72.032 193.9 34.33 92.8 -100002
8/30/2021 11:15:00 AM 22.33 72.194 193.9 35.52 93.5 -100002
8/30/2021 11:30:00 AM 22.4 72.32 194.1 32.32 93.6 -100002
8/30/2021 11:45:00 AM 22.56 72.608 194.1 32.29 94.7 -100002
8/30/2021 12:00:00 PM 22.64 72.752 194.1 32.2 95.3 -100002
8/30/2021 12:15:00 PM 22.73 72.914 194.4 31.41 95.6 -100002
8/30/2021 12:30:00 PM 22.77 72.986 194.3 30.59 95.9 -100002
8/30/2021 12:45:00 PM 22.93 73.274 194.5 31.28 96.9 -100002
8/30/2021 1:00:00 PM 22.94 73.292 194.7 31.12 97 -100002
8/30/2021 1:15:00 PM 23.19 73.742 194.8 31.09 98.1 -100002
8/30/2021 1:30:00 PM 23.31 73.958 195.1 29.69 98.5 -100002
8/30/2021 1:45:00 PM 23.44 74.192 195.3 29.74 99.1 -100002
8/30/2021 2:00:00 PM 23.5 74.3 195.5 31.43 99.6 -100002
8/30/2021 2:15:00 PM 23.56 74.408 195.7 30.78 99.7 -100002
8/30/2021 2:30:00 PM 23.69 74.642 195.7 31.97 100.7 -100002
8/30/2021 2:45:00 PM 23.82 74.876 196 34.72 101.1 -100002
8/30/2021 3:00:00 PM 23.93 75.074 196.1 31.83 101.5 -100002
8/30/2021 3:15:00 PM 24.03 75.254 196.1 29.18 102.1 -100002
8/30/2021 3:30:00 PM 24.07 75.326 196.3 32.12 102.4 -100002
8/30/2021 3:45:00 PM 24.13 75.434 196.3 30.72 102.6 -100002
8/30/2021 4:00:00 PM 24.13 75.434 196.4 32.81 102.4 -100002
8/30/2021 4:15:00 PM 24.11 75.398 196.5 28.37 102.4 -100002
8/30/2021 4:30:00 PM 24.06 75.308 196.4 31.66 102.2 -100002
8/30/2021 4:45:00 PM 24 75.2 196.5 28.99 101.7 -100002
8/30/2021 5:00:00 PM 23.98 75.164 196.5 30.04 101.5 -100002
8/30/2021 5:15:00 PM 23.95 75.11 196.7 28.65 101.1 -100002
8/30/2021 5:30:00 PM 23.98 75.164 196.6 27.67 101.2 -100002
8/30/2021 5:45:00 PM 24 75.2 196.7 30.35 101.1 -100002
8/30/2021 6:00:00 PM 24.03 75.254 196.8 28.97 101 -100002
8/30/2021 6:15:00 PM 24.02 75.236 197 28.56 100.4 -100002
8/30/2021 6:30:00 PM 24.02 75.236 197.3 28.45 100.1 -100002
8/30/2021 6:45:00 PM 24.02 75.236 197.4 28.39 99.9 -100002
8/30/2021 7:00:00 PM 24.02 75.236 197.2 29.62 99.6 -100002
8/30/2021 7:15:00 PM 24.02 75.236 197.2 28.13 99.2 -100002
8/30/2021 7:30:00 PM 24 75.2 197.8 29.62 98.6 -100002
8/30/2021 7:45:00 PM 23.98 75.164 198 27.64 98.3 -100002
8/30/2021 8:00:00 PM 23.97 75.146 198.1 29.41 97.8 -100002
8/30/2021 8:15:00 PM 23.95 75.11 198.2 30.94 97.5 -100002
8/30/2021 8:30:00 PM 23.94 75.092 198.4 32.13 97.2 -100002
8/30/2021 8:45:00 PM 23.93 75.074 198.3 31.19 96.8 -100002
8/30/2021 9:00:00 PM 23.93 75.074 198.3 30.48 96.6 -100002
8/30/2021 9:15:00 PM 23.92 75.056 198.4 28.44 96.4 -100002
8/30/2021 9:30:00 PM 23.91 75.038 198.5 31.03 96 -100002
8/30/2021 9:45:00 PM 23.92 75.056 196.7 32.25 95.9 -100002
8/30/2021 10:00:00 PM 23.92 75.056 198.5 32.02 95.7 -100002
8/30/2021 10:15:00 PM 23.9 75.02 198.8 31.19 95.3 -100002
8/30/2021 10:30:00 PM 23.9 75.02 198.8 31.78 95.1 -100002
8/30/2021 10:45:00 PM 23.9 75.02 198.9 32.18 95 -100002
8/30/2021 11:00:00 PM 23.9 75.02 197.3 36.06 94.9 -100002
8/30/2021 11:15:00 PM 23.88 74.984 199.3 36.28 94.5 -100002
8/30/2021 11:30:00 PM 23.86 74.948 199.7 36.13 94.3 -100002
8/30/2021 11:45:00 PM 23.85 74.93 199.7 34.27 94.3 -100002
8/31/2021 12:00:00 AM 23.83 74.894 199.9 34.82 93.9 -100002
8/31/2021 12:15:00 AM 23.81 74.858 200.1 35.44 93.6 -100002
8/31/2021 12:30:00 AM 23.79 74.82201 200.1 33.68 93.6 -100002
8/31/2021 12:45:00 AM 23.76 74.768 200.3 32.64 93.1 -100002
8/31/2021 1:00:00 AM 23.72 74.696 200.5 32.33 92.9 -100002
8/31/2021 1:15:00 AM 23.71 74.67799 200.4 32.97 92.8 -100002
8/31/2021 1:30:00 AM 23.68 74.624 200.4 33.74 92.5 -100002
8/31/2021 1:45:00 AM 23.66 74.588 200.5 34.32 92.3 -100002
8/31/2021 2:00:00 AM 23.65 74.57 200.4 38.4 92.2 -100002
8/31/2021 2:15:00 AM 23.62 74.516 200.4 34.56 92 -100002
8/31/2021 2:30:00 AM 23.6 74.48 200.5 37.58 91.8 -100002
8/31/2021 2:45:00 AM 23.59 74.462 200.5 35.73 91.7 -100002
8/31/2021 3:00:00 AM 23.56 74.408 200.7 38.4 91.4 -100002
8/31/2021 3:15:00 AM 23.53 74.354 200.8 36.31 91 -100002
8/31/2021 3:30:00 AM 23.53 74.354 200.7 37.75 91.2 -100002
8/31/2021 3:45:00 AM 23.51 74.318 200.9 40.76 90.8 -100002
8/31/2021 4:00:00 AM 23.48 74.264 201 45.12 90.7 -100002
8/31/2021 4:15:00 AM 23.46 74.228 201.2 43.88 90.4 -100002
8/31/2021 4:30:00 AM 23.44 74.192 201.4 43.04 90.4 -100002
8/31/2021 4:45:00 AM 23.42 74.156 201.6 40.92 90.3 -100002
8/31/2021 5:00:00 AM 23.39 74.102 201.8 45.43 90 -100002
8/31/2021 5:15:00 AM 23.37 74.066 201.9 44.16 89.9 -100002
8/31/2021 5:30:00 AM 23.34 74.012 202.1 43.73 89.8 -100002
8/31/2021 5:45:00 AM 23.32 73.976 202.2 43.93 89.6 -100002
8/31/2021 6:00:00 AM 23.28 73.904 202.4 49.63 89.4 -100002
8/31/2021 6:15:00 AM 23.27 73.886 202.5 45.55 89.5 -100002
8/31/2021 6:30:00 AM 23.23 73.814 202.6 45.89 89.3 -100002
8/31/2021 6:45:00 AM 23.19 73.742 202.7 46.13 88.9 -100002
8/31/2021 7:00:00 AM 23.16 73.688 202.9 57.74 88.9 -100002
8/31/2021 7:15:00 AM 23.14 73.652 202.9 56.36 88.9 -100002
8/31/2021 7:30:00 AM 23.11 73.598 203.1 59.41 88.6 -100002
8/31/2021 7:45:00 AM 23.09 73.562 203.1 61.93 88.5 -100002
8/31/2021 8:00:00 AM 23.07 73.526 203.2 57.34 88.7 -100002
8/31/2021 8:15:00 AM 23.06 73.508 203.3 62.42 88.8 -100002
8/31/2021 8:30:00 AM 23.05 73.49 203.5 61.45 88.8 -100002
8/31/2021 8:45:00 AM 23.05 73.49 203.8 60.29 88.9 -100002
8/31/2021 9:00:00 AM 23.05 73.49 204 63.97 88.9 -100002
8/31/2021 9:15:00 AM 23.06 73.508 204.3 65.19 89.2 -100002
8/31/2021 9:30:00 AM 23.09 73.562 204.6 69.24 90 -100002
8/31/2021 9:45:00 AM 23.09 73.562 204.8 73.66 90 -100002
8/31/2021 10:00:00 AM 23.12 73.616 205.1 67.43 90.8 -100002
8/31/2021 10:15:00 AM 23.15 73.67 205.3 73.64 91.3 -100002
8/31/2021 10:30:00 AM 23.16 73.688 205.5 73.1 91.3 -100002
8/31/2021 10:45:00 AM 23.18 73.724 205.7 79.05 91.8 -100002
8/31/2021 11:00:00 AM 23.2 73.76 205.9 77.61 92.5 -100002
8/31/2021 11:15:00 AM 23.21 73.778 206 77.13 92.6 -100002
8/31/2021 11:30:00 AM 23.24 73.832 206 69.79 93.5 -100002
8/31/2021 11:45:00 AM 23.28 73.904 206.2 77.02 94 -100002
8/31/2021 12:00:00 PM 23.29 73.922 206.4 68.19 94.1 -100002
8/31/2021 12:15:00 PM 23.34 74.012 206.5 72.43 94.9 -100002
8/31/2021 12:30:00 PM 23.36 74.048 206.6 77.81 95.4 -100002
8/31/2021 12:45:00 PM 23.39 74.102 206.8 81.57 96 -100002
8/31/2021 1:00:00 PM 23.42 74.156 207 75 96.3 -100002
8/31/2021 1:15:00 PM 23.49 74.282 207 81.5 97 -100002
8/31/2021 1:30:00 PM 23.53 74.354 207.2 82.13 97.8 -100002
8/31/2021 1:45:00 PM 23.55 74.39 207.3 73.63 97.8 -100002
8/31/2021 2:00:00 PM 23.57 74.426 207.5 74.9 98.3 -100002
8/31/2021 2:15:00 PM 23.59 74.462 207.6 89.87 98.7 -100002
8/31/2021 2:30:00 PM 23.61 74.498 207.7 85.99 99.1 -100002
8/31/2021 2:45:00 PM 23.6 74.48 207.8 86.65 98.6 -100002
8/31/2021 3:00:00 PM 23.6 74.48 207.9 89.77 99 -100002
8/31/2021 3:15:00 PM 23.62 74.516 208 87.58 99.4 -100002
8/31/2021 3:30:00 PM 23.64 74.552 208.1 73.68 99.4 -100002
8/31/2021 3:45:00 PM 23.63 74.534 208 79.11 99.4 -100002
8/31/2021 4:00:00 PM 23.63 74.534 208.1 90.02 99.5 -100002
8/31/2021 4:15:00 PM 23.64 74.552 208 75.5 99.5 -100002
8/31/2021 4:30:00 PM 23.62 74.516 208.2 80.41 99.6 -100002
8/31/2021 4:45:00 PM 23.61 74.498 208 82.41 99.1 -100002
8/31/2021 5:00:00 PM 23.6 74.48 207.9 75.9 99.1 -100002
8/31/2021 5:15:00 PM 23.59 74.462 207.9 82.54 99.2 -100002
8/31/2021 5:30:00 PM 23.58 74.444 207.9 85.48 99 -100002
8/31/2021 5:45:00 PM 23.56 74.408 207.9 85.22 98.6 -100002
8/31/2021 6:00:00 PM 23.55 74.39 207.8 84.19 98.5 -100002
8/31/2021 6:15:00 PM 23.52 74.336 207.9 95.39 98.3 -100002
8/31/2021 6:30:00 PM 23.51 74.318 207.8 91.41 98.5 -100002
8/31/2021 6:45:00 PM 23.49 74.282 207.8 91.68 97.9 -100002
8/31/2021 7:00:00 PM 23.47 74.246 207.9 96.56 97.7 -100002
8/31/2021 7:15:00 PM 23.45 74.21 208 96.14 97.2 -100002
8/31/2021 7:30:00 PM 23.42 74.156 208.1 101.3 97 -100002
8/31/2021 7:45:00 PM 23.4 74.12 208.1 101.8 96.7 -100002
8/31/2021 8:00:00 PM 23.37 74.066 208.2 107.1 96.2 -100002
8/31/2021 8:15:00 PM 23.36 74.048 208.3 97.66 96.2 -100002
8/31/2021 8:30:00 PM 23.33 73.994 208.4 97.07 95.9 -100002
8/31/2021 8:45:00 PM 23.29 73.922 208.5 108.6 95.4 -100002
8/31/2021 9:00:00 PM 23.28 73.904 208.5 113.7 95.3 -100002
8/31/2021 9:15:00 PM 23.26 73.868 208.6 97.46 95.1 -100002
8/31/2021 9:30:00 PM 23.23 73.814 208.7 93.67 94.7 -100002
8/31/2021 9:45:00 PM 23.22 73.796 208.7 55.09 94.7 -100002
8/31/2021 10:00:00 PM 23.19 73.742 208.8 54.36 94.3 -100002
8/31/2021 10:15:00 PM 23.18 73.724 208.9 71.71 94.3 -100002
8/31/2021 10:30:00 PM 23.14 73.652 209 57.37 93.8 -100002
8/31/2021 10:45:00 PM 23.13 73.634 209.1 58.66 93.7 -100002
8/31/2021 11:00:00 PM 23.11 73.598 209.3 50.41 93.7 -100002
8/31/2021 11:15:00 PM 23.1 73.58 209.4 57.28 93.6 -100002
8/31/2021 11:30:00 PM 23.09 73.562 209.7 65.89 93.4 -100002
8/31/2021 11:45:00 PM 23.06 73.508 209.9 69.08 93.2 -100002
9/1/2021 12:00:00 AM 23.04 73.472 210.3 62.28 93 -100002
9/1/2021 12:15:00 AM 23.02 73.436 210.4 67.24 92.9 -100002
9/1/2021 12:30:00 AM 23.01 73.418 210.7 67.52 92.5 -100002
9/1/2021 12:45:00 AM 22.99 73.382 211.1 65.43 92.4 -100002
9/1/2021 1:00:00 AM 22.98 73.364 211.4 68.84 92.5 -100002
9/1/2021 1:15:00 AM 22.96 73.328 211.7 68.31 92.4 -100002
9/1/2021 1:30:00 AM 22.95 73.31 211.8 66.82 92.3 -100002
9/1/2021 1:45:00 AM 22.91 73.238 211.7 71.12 92.3 -100002
9/1/2021 2:00:00 AM 22.89 73.202 212 62.31 91.8 -100002
9/1/2021 2:15:00 AM 22.89 73.202 212.4 81.92 92 -100002
9/1/2021 2:30:00 AM 22.86 73.148 212.6 64.67 91.8 -100002
9/1/2021 2:45:00 AM 22.84 73.112 212.9 63.78 91.7 -100002
9/1/2021 3:00:00 AM 22.81 73.058 213.1 62.98 91.3 -100002
9/1/2021 3:15:00 AM 22.79 73.022 213.2 67.31 91.4 -100002
9/1/2021 3:30:00 AM 22.76 72.968 213.4 58.78 91.1 -100002
9/1/2021 3:45:00 AM 22.74 72.932 213.6 60.44 90.8 -100002
9/1/2021 4:00:00 AM 22.73 72.914 213.8 60.53 90.7 -100002
9/1/2021 4:15:00 AM 22.72 72.896 214 60.98 90.7 -100002
9/1/2021 4:30:00 AM 22.69 72.842 214.2 58.07 90.3 -100002
9/1/2021 4:45:00 AM 22.66 72.788 214.1 58.23 90.3 -100002
9/1/2021 5:00:00 AM 22.64 72.752 214.4 59.6 90.3 -100002
9/1/2021 5:15:00 AM 22.62 72.716 214.4 74.88 90.2 -100002
9/1/2021 5:30:00 AM 22.6 72.68 214.5 67.72 90 -100002
9/1/2021 5:45:00 AM 22.57 72.626 214.6 35.02 89.5 -100002
9/1/2021 6:00:00 AM 22.53 72.554 214.6 28 89.5 -100002
9/1/2021 6:15:00 AM 22.51 72.518 214.5 1162 89.6 -100002
9/1/2021 6:30:00 AM 22.48 72.464 214.5 13.41 89.5 -100002
9/1/2021 6:45:00 AM 22.45 72.41 214.2 17.41 89.4 -100002
9/1/2021 7:00:00 AM 22.43 72.374 213.2 22.66 89.7 -100002
9/1/2021 7:15:00 AM 22.37 72.266 213.3 18.57 89.4 -100002
9/1/2021 7:30:00 AM 22.35 72.23 213.2 21.08 89.2 -100002
9/1/2021 7:45:00 AM 22.3 72.14 213.1 16.11 89.1 -100002
9/1/2021 8:00:00 AM 22.27 72.086 213.1 586.2 89.1 -100002
9/1/2021 8:15:00 AM 22.23 72.014 212.6 16.41 89.1 -100002
9/1/2021 8:30:00 AM 22.2 71.96 211.9 21.19 89.3 -100002
9/1/2021 8:45:00 AM 22.14 71.852 211.1 22.78 89.2 -100002
9/1/2021 9:00:00 AM 22.13 71.834 211.1 17.33 89.1 -100002
9/1/2021 9:15:00 AM 22.05 71.69 209.6 17.86 89.4 -100002
9/1/2021 9:30:00 AM 21.95 71.51 203.6 87.36 90.8 -100002
9/1/2021 9:45:00 AM 21.82 71.276 200.9 56.52 90.4 -100002
9/1/2021 10:00:00 AM 21.53 70.754 189.6 106.4 91.3 -100002
9/1/2021 10:15:00 AM 21.47 70.646 176.6 155.8 89.9 -100002
9/1/2021 10:30:00 AM 21.06 69.908 135.2 258.6 87.2 -100002
9/1/2021 10:45:00 AM 21.07 69.926 121.9 236.4 85.8 -100002
9/1/2021 11:00:00 AM 21.08 69.944 114.9 232.1 84.4 -100002
9/1/2021 11:15:00 AM 21.04 69.872 107.4 202.3 84.1 -100002
9/1/2021 11:30:00 AM 21.09 69.962 111 221.3 84 -100002
9/1/2021 11:45:00 AM 21.22 70.196 123.6 162.3 85.3 -100002
9/1/2021 12:00:00 PM 21.19 70.142 116.1 158.6 84.9 -100002
9/1/2021 12:15:00 PM 21.24 70.232 118.4 142.2 84.8 -100002
9/1/2021 12:30:00 PM 21.21 70.17799 113.5 139.2 85.4 -100002
9/1/2021 12:45:00 PM 21.28 70.304 128 122.8 86.8 -100002
9/1/2021 1:00:00 PM 21.29 70.32201 135 122 87 -100002
9/1/2021 1:15:00 PM 21.2 70.16 126.2 127 86.9 -100002
9/1/2021 1:30:00 PM 21.06 69.908 113.4 143.9 86.4 -100002
9/1/2021 1:45:00 PM 21.04 69.872 115.7 145.7 86.3 -100002
9/1/2021 2:00:00 PM 20.95 69.71 106.7 152 86.6 -100002
9/1/2021 2:15:00 PM 20.91 69.638 107.3 157.5 86.7 -100002
9/1/2021 2:30:00 PM 20.89 69.602 110.4 163.6 86.1 -100002
9/1/2021 2:45:00 PM 20.81 69.458 96.7 143.3 86 -100002
9/1/2021 3:00:00 PM 20.86 69.548 107.9 150.1 86.1 -100002
9/1/2021 3:15:00 PM 20.8 69.44 98.3 139.3 86.1 -100002
9/1/2021 3:30:00 PM 20.73 69.314 89.8 121 86.1 -100002
9/1/2021 3:45:00 PM 20.77 69.386 97.9 146.1 86.6 -100002
9/1/2021 4:00:00 PM 20.65 69.17 88.1 114.3 86.5 -100002
9/1/2021 4:15:00 PM 20.64 69.152 91 126.1 87.1 -100002
9/1/2021 4:30:00 PM 20.58 69.044 91.1 126.2 87.5 -100002
9/1/2021 4:45:00 PM 20.51 68.918 89.8 112.6 87.7 -100002
9/1/2021 5:00:00 PM 20.54 68.972 97.4 126.9 88 -100002
9/1/2021 5:15:00 PM 20.43 68.774 93.5 122.3 87.8 -100002
9/1/2021 5:30:00 PM 20.4 68.72 96.2 125.6 88 -100002
9/1/2021 5:45:00 PM 20.29 68.522 92.7 122.8 88 -100002
9/1/2021 6:00:00 PM 20.24 68.432 92.7 135.1 88 -100002
9/1/2021 6:15:00 PM 20.31 68.558 101.8 168.5 87.9 -100002
9/1/2021 6:30:00 PM 20.22 68.396 97.6 145.3 87.6 -100002
9/1/2021 6:45:00 PM 20.27 68.486 102.9 140.7 87.5 -100002
9/1/2021 7:00:00 PM 20.23 68.414 101.8 144.3 87.1 -100002
9/1/2021 7:15:00 PM 20.18 68.324 98.9 135.8 86.9 -100002
9/1/2021 7:30:00 PM 20.16 68.288 99.1 134.2 86.6 -100002
9/1/2021 7:45:00 PM 20.12 68.216 98.9 125.2 86.4 -100002
9/1/2021 8:00:00 PM 20.12 68.216 100.8 128.8 86.1 -100002
9/1/2021 8:15:00 PM 20.09 68.162 101.9 118 85.6 -100002
9/1/2021 8:30:00 PM 20.11 68.198 103.9 129.8 85.2 -100002
9/1/2021 8:45:00 PM 20.04 68.07201 101.1 116.5 84.5 -100002
9/1/2021 9:00:00 PM 20.06 68.108 103.3 123.4 84.1 -100002
9/1/2021 9:15:00 PM 20.01 68.018 102.3 107.8 83.4 -100002
9/1/2021 9:30:00 PM 19.99 67.982 101.9 107.1 82.9 -100002
9/1/2021 9:45:00 PM 20.02 68.036 103.4 110.1 82.4 -100002
9/1/2021 10:00:00 PM 19.95 67.91 99.2 104.3 81.5 -100002
9/1/2021 10:15:00 PM 19.93 67.874 100.2 104.6 80.7 -100002
9/1/2021 10:30:00 PM 19.92 67.856 102.1 98.83 80.6 -100002
9/1/2021 10:45:00 PM 19.94 67.892 104.6 95.72 80.9 -100002
9/1/2021 11:00:00 PM 19.96 67.92799 106.4 96.86 81.2 -100002
9/1/2021 11:15:00 PM 19.95 67.91 106.1 98.42 81.3 -100002
9/1/2021 11:30:00 PM 19.94 67.892 105.6 95.14 81.2 -100002
9/1/2021 11:45:00 PM 19.92 67.856 105 96.15 80.7 -100002
9/2/2021 12:00:00 AM 19.89 67.802 104.2 103.7 80.9 -100002
9/2/2021 12:15:00 AM 19.88 67.784 104.2 109.2 80.6 -100002
9/2/2021 12:30:00 AM 19.85 67.73 103.6 99.94 80.9 -100002
9/2/2021 12:45:00 AM 19.81 67.658 102.4 100.6 80.7 -100002
9/2/2021 1:00:00 AM 19.77 67.586 101.3 105.2 80.5 -100002
9/2/2021 1:15:00 AM 19.75 67.55 100.6 100 80.4 -100002
9/2/2021 1:30:00 AM 19.72 67.496 100.2 106.3 80.4 -100002
9/2/2021 1:45:00 AM 19.68 67.424 99.2 105.3 80.2 -100002
9/2/2021 2:00:00 AM 19.66 67.388 98.9 108.5 80 -100002
9/2/2021 2:15:00 AM 19.63 67.334 98.5 108.5 80.1 -100002
9/2/2021 2:30:00 AM 19.6 67.28 97.6 105 79.9 -100002
9/2/2021 2:45:00 AM 19.57 67.226 97.2 108.1 79.8 -100002
9/2/2021 3:00:00 AM 19.53 67.154 96.5 115.2 79.8 -100002
9/2/2021 3:15:00 AM 19.51 67.118 95.9 115.1 79.5 -100002
9/2/2021 3:30:00 AM 19.5 67.1 96.1 107.8 79.5 -100002
9/2/2021 3:45:00 AM 19.47 67.046 95.1 109.1 79.3 -100002
9/2/2021 4:00:00 AM 19.44 66.992 95 112.3 79.4 -100002
9/2/2021 4:15:00 AM 19.41 66.938 94.2 112.6 79.4 -100002
9/2/2021 4:30:00 AM 19.4 66.92 94.2 122.8 79.3 -100002
9/2/2021 4:45:00 AM 19.36 66.848 93.1 129.6 79 -100002
9/2/2021 5:00:00 AM 19.34 66.812 92.8 125.5 78.8 -100002
9/2/2021 5:15:00 AM 19.31 66.758 92.9 124.6 78.8 -100002
9/2/2021 5:30:00 AM 19.28 66.704 92.7 119.5 78.9 -100002
9/2/2021 5:45:00 AM 19.26 66.668 91.7 124.5 79 -100002
9/2/2021 6:00:00 AM 19.24 66.632 91.7 121.7 78.9 -100002
9/2/2021 6:15:00 AM 19.22 66.596 91 124.8 79.1 -100002
9/2/2021 6:30:00 AM 19.2 66.56 90.7 121.4 79.1 -100002
9/2/2021 6:45:00 AM 19.19 66.542 90.4 121.4 79.1 -100002
9/2/2021 7:00:00 AM 19.17 66.506 90.2 124.8 79.2 -100002
9/2/2021 7:15:00 AM 19.16 66.488 89.7 124.7 79.2 -100002
9/2/2021 7:30:00 AM 19.14 66.452 89.3 119.8 79.1 -100002
9/2/2021 7:45:00 AM 19.13 66.434 89.1 121.8 79.1 -100002
9/2/2021 8:00:00 AM 19.12 66.416 88.4 122.1 79.3 -100002

These are provisional data and have not been subject to a quality assurance process, but rather are the raw data reported by the instrument.
H: value is above sensor operating range
L: value is below sensor operating range
Offline: station is not reporting data
NC: parameter is not collected at site

Data Availability & Limitations

Uncertainty and potential for error can be associated with environmental monitoring data. Provisional data have not been subject to a quality assurance process, but rather are the raw data reported by the instrument. Data users are cautioned to consider carefully the provisional nature of the information before using it for decisions that concern personal or public safety or the conduct of business that involves substantial monetary or operational consequences.

Approved data are currently available by request by emailing: srbc@srbc.net. Approved data have been subject to a quality assurance process to correct for equipment or fouling drift. Data recorded during equipment malfunctions have been removed.

View Historical Stations that have been discontinued.